createdAt,value
2023-05-06T00:01:15.322Z,25.10
2023-05-06T00:03:43.848Z,25.00
2023-05-06T00:06:12.330Z,24.80
2023-05-06T00:08:40.640Z,24.70
2023-05-06T00:11:08.720Z,24.90
2023-05-06T00:13:36.894Z,24.90
2023-05-06T00:16:05.446Z,24.80
2023-05-06T00:18:33.778Z,24.60
2023-05-06T00:21:02.206Z,24.50
2023-05-06T00:23:31.411Z,24.40
2023-05-06T00:25:59.508Z,24.40
2023-05-06T00:28:27.816Z,24.40
2023-05-06T00:30:56.002Z,24.30
2023-05-06T00:33:24.287Z,24.20
2023-05-06T00:35:53.329Z,24.40
2023-05-06T00:38:27.467Z,24.30
2023-05-06T00:40:55.850Z,24.30
2023-05-06T00:43:24.035Z,24.40
2023-05-06T00:45:52.666Z,24.70
2023-05-06T00:48:21.262Z,24.90
2023-05-06T00:50:49.931Z,24.90
2023-05-06T00:53:21.219Z,24.90
2023-05-06T00:55:50.929Z,24.80
2023-05-06T00:58:20.396Z,24.80
2023-05-06T01:00:49.192Z,24.80
2023-05-06T01:03:17.704Z,24.80
2023-05-06T01:05:56.065Z,25.00
2023-05-06T01:08:42.624Z,25.10
2023-05-06T01:11:56.375Z,25.30
2023-05-06T01:15:02.849Z,25.30
2023-05-06T01:17:34.845Z,25.10
2023-05-06T01:20:06.433Z,24.80
2023-05-06T01:22:38.150Z,24.50
2023-05-06T01:25:07.561Z,24.40
2023-05-06T01:27:36.355Z,24.50
2023-05-06T01:30:06.338Z,24.70
2023-05-06T01:33:00.415Z,24.70
2023-05-06T01:35:41.148Z,24.80
2023-05-06T01:38:26.657Z,25.10
2023-05-06T01:40:58.471Z,25.10
2023-05-06T01:43:30.893Z,25.10
2023-05-06T01:46:02.017Z,25.20
2023-05-06T01:48:34.449Z,25.20
2023-05-06T01:51:03.468Z,25.00
2023-05-06T01:53:33.139Z,24.80
2023-05-06T01:56:02.041Z,24.50
2023-05-06T01:58:30.316Z,24.60
2023-05-06T02:00:58.693Z,24.70
2023-05-06T02:03:26.916Z,24.70
2023-05-06T02:05:55.494Z,24.70
2023-05-06T02:08:25.419Z,24.70
2023-05-06T02:10:54.035Z,24.80
2023-05-06T02:13:23.706Z,25.00
2023-05-06T02:15:55.597Z,25.10
2023-05-06T02:18:24.388Z,25.10
2023-05-06T02:20:52.673Z,25.00
2023-05-06T02:23:20.909Z,24.90
2023-05-06T02:25:49.195Z,24.80
2023-05-06T02:28:17.563Z,24.80
2023-05-06T02:30:45.853Z,24.70
2023-05-06T02:33:14.289Z,24.80
2023-05-06T02:35:42.362Z,24.80
2023-05-06T02:38:10.498Z,24.90
2023-05-06T02:40:38.774Z,25.10
2023-05-06T02:43:06.994Z,25.30
2023-05-06T02:45:35.550Z,25.40
2023-05-06T02:48:03.946Z,25.40
2023-05-06T02:50:32.622Z,25.30
2023-05-06T02:53:01.121Z,25.10
2023-05-06T02:55:29.324Z,24.80
2023-05-06T02:57:57.740Z,24.80
2023-05-06T03:00:26.366Z,24.70
2023-05-06T03:02:54.947Z,24.60
2023-05-06T03:05:23.227Z,24.70
2023-05-06T03:07:51.720Z,24.60
2023-05-06T03:10:20.001Z,24.70
2023-05-06T03:12:48.393Z,24.80
2023-05-06T03:15:16.610Z,24.90
2023-05-06T03:17:44.811Z,24.70
2023-05-06T03:20:13.134Z,24.90
2023-05-06T03:22:45.710Z,24.70
2023-05-06T03:25:13.988Z,24.50
2023-05-06T03:27:43.423Z,24.40
2023-05-06T03:30:18.554Z,24.40
2023-05-06T03:32:48.562Z,24.40
2023-05-06T03:35:23.344Z,24.40
2023-05-06T03:37:55.877Z,24.40
2023-05-06T03:40:27.259Z,24.50
2023-05-06T03:42:56.749Z,24.40
2023-05-06T03:45:25.673Z,24.80
2023-05-06T03:47:54.595Z,24.80
2023-05-06T03:50:24.529Z,24.60
2023-05-06T03:52:54.685Z,24.60
2023-05-06T03:55:25.187Z,24.60
2023-05-06T03:57:53.662Z,24.30
2023-05-06T04:00:22.807Z,24.10
2023-05-06T04:02:54.643Z,24.00
2023-05-06T04:05:33.272Z,24.00
2023-05-06T04:08:02.701Z,24.40
2023-05-06T04:10:31.516Z,24.50
2023-05-06T04:13:06.797Z,24.80
2023-05-06T04:15:40.928Z,24.90
2023-05-06T04:18:12.030Z,24.70
2023-05-06T04:20:42.933Z,24.40
2023-05-06T04:23:11.700Z,24.30
2023-05-06T04:25:39.909Z,24.30
2023-05-06T04:28:08.142Z,24.30
2023-05-06T04:30:36.821Z,24.00
2023-05-06T04:33:05.166Z,24.00
2023-05-06T04:35:34.551Z,24.00
2023-05-06T04:38:03.182Z,24.00
2023-05-06T04:40:32.405Z,24.50
2023-05-06T04:43:01.088Z,24.70
2023-05-06T04:45:30.331Z,24.80
2023-05-06T04:47:58.827Z,24.70
2023-05-06T04:50:27.294Z,24.50
2023-05-06T04:52:55.891Z,24.40
2023-05-06T04:55:24.662Z,24.40
2023-05-06T04:57:54.326Z,24.30
2023-05-06T05:00:22.689Z,24.30
2023-05-06T05:02:51.283Z,24.20
2023-05-06T05:05:20.998Z,24.30
2023-05-06T05:07:52.808Z,24.20
2023-05-06T05:10:21.313Z,24.30
2023-05-06T05:12:52.383Z,24.60
2023-05-06T05:15:21.365Z,24.70
2023-05-06T05:17:51.729Z,24.40
2023-05-06T05:20:23.418Z,24.50
2023-05-06T05:22:52.023Z,24.40
2023-05-06T05:25:20.896Z,24.30
2023-05-06T05:27:50.174Z,24.20
2023-05-06T05:30:19.487Z,24.10
2023-05-06T05:32:48.687Z,24.00
2023-05-06T05:35:17.914Z,23.90
2023-05-06T05:37:47.459Z,23.90
2023-05-06T05:40:17.122Z,23.80
2023-05-06T05:42:45.737Z,23.80
2023-05-06T05:45:22.570Z,23.80
2023-05-06T05:47:51.660Z,24.00
2023-05-06T05:50:20.324Z,24.10
2023-05-06T05:52:48.582Z,24.00
2023-05-06T05:55:18.113Z,24.10
2023-05-06T05:57:48.104Z,24.10
2023-05-06T06:00:17.920Z,24.20
2023-05-06T06:02:46.251Z,24.20
2023-05-06T06:05:19.252Z,24.20
2023-05-06T06:07:48.138Z,24.10
2023-05-06T06:10:16.222Z,24.20
2023-05-06T06:12:45.575Z,24.40
2023-05-06T06:15:19.078Z,24.40
2023-05-06T06:17:47.958Z,24.20
2023-05-06T06:20:17.092Z,24.00
2023-05-06T06:22:46.775Z,23.90
2023-05-06T06:25:15.652Z,23.90
2023-05-06T06:27:44.145Z,24.00
2023-05-06T06:30:13.655Z,24.10
2023-05-06T06:32:50.950Z,24.10
2023-05-06T06:35:19.440Z,24.00
2023-05-06T06:37:48.174Z,24.40
2023-05-06T06:40:16.768Z,24.50
2023-05-06T06:42:45.014Z,24.60
2023-05-06T06:45:31.092Z,24.40
2023-05-06T06:47:59.484Z,24.40
2023-05-06T06:50:27.610Z,24.50
2023-05-06T06:52:56.041Z,24.60
2023-05-06T06:55:24.502Z,24.60
2023-05-06T06:57:52.806Z,24.60
2023-05-06T07:00:21.147Z,24.40
2023-05-06T07:02:49.886Z,24.80
2023-05-06T07:05:19.510Z,25.30
2023-05-06T07:07:47.721Z,25.60
2023-05-06T07:10:16.287Z,25.70
2023-05-06T07:12:44.508Z,25.50
2023-05-06T07:15:13.127Z,25.50
2023-05-06T07:17:41.824Z,25.60
2023-05-06T07:20:10.667Z,25.50
2023-05-06T07:22:38.987Z,25.30
2023-05-06T07:25:08.210Z,25.70
2023-05-06T07:27:36.410Z,26.00
2023-05-06T07:30:05.973Z,26.30
2023-05-06T07:32:34.439Z,26.70
2023-05-06T07:35:02.669Z,27.00
2023-05-06T07:37:31.065Z,27.10
2023-05-06T07:39:59.236Z,27.10
2023-05-06T07:42:27.581Z,26.90
2023-05-06T07:44:55.691Z,26.90
2023-05-06T07:47:29.770Z,27.00
2023-05-06T07:49:58.966Z,27.20
2023-05-06T07:52:27.576Z,27.10
2023-05-06T07:54:55.908Z,27.80
2023-05-06T07:57:24.145Z,28.60
2023-05-06T07:59:53.002Z,29.00
2023-05-06T08:02:21.310Z,29.00
2023-05-06T08:04:51.581Z,29.20
2023-05-06T08:07:20.672Z,29.30
2023-05-06T08:09:48.840Z,31.00
2023-05-06T08:12:17.129Z,33.30
2023-05-06T08:14:45.178Z,35.10
2023-05-06T08:17:14.413Z,35.70
2023-05-06T08:19:44.079Z,36.40
2023-05-06T08:22:12.419Z,36.50
2023-05-06T08:24:40.490Z,36.50
2023-05-06T08:27:08.785Z,36.90
2023-05-06T08:29:37.043Z,37.60
2023-05-06T08:32:05.589Z,38.10
2023-05-06T08:34:33.797Z,38.40
2023-05-06T08:37:02.751Z,37.60
2023-05-06T08:39:31.560Z,37.60
2023-05-06T08:42:01.409Z,39.10
2023-05-06T08:44:29.684Z,39.20
2023-05-06T08:46:58.034Z,39.20
2023-05-06T08:49:26.424Z,39.90
2023-05-06T08:51:54.507Z,40.20
2023-05-06T08:54:28.132Z,39.40
2023-05-06T08:56:58.166Z,40.20
2023-05-06T08:59:26.734Z,39.70
2023-05-06T09:01:55.052Z,40.70
2023-05-06T09:04:23.200Z,39.30
2023-05-06T09:06:51.450Z,39.70
2023-05-06T09:09:19.691Z,40.70
2023-05-06T09:11:50.087Z,40.70
2023-05-06T09:14:18.993Z,40.40
2023-05-06T09:16:50.082Z,40.70
2023-05-06T09:19:20.469Z,41.20
2023-05-06T09:21:50.710Z,41.10
2023-05-06T09:24:19.427Z,41.50
2023-05-06T09:26:48.275Z,41.20
2023-05-06T09:29:16.890Z,41.70
2023-05-06T09:31:46.837Z,40.80
2023-05-06T09:34:15.982Z,41.00
2023-05-06T09:36:44.764Z,41.00
2023-05-06T09:39:13.295Z,40.70
2023-05-06T09:41:41.463Z,40.60
2023-05-06T09:44:09.829Z,38.40
2023-05-06T09:46:38.114Z,36.80
2023-05-06T09:49:07.204Z,36.00
2023-05-06T09:51:35.602Z,35.40
2023-05-06T09:54:04.247Z,35.40
2023-05-06T09:56:33.684Z,35.90
2023-05-06T09:59:03.128Z,35.70
2023-05-06T10:01:36.964Z,35.40
2023-05-06T10:04:09.493Z,35.20
2023-05-06T10:06:41.286Z,35.00
2023-05-06T10:09:10.804Z,34.90
2023-05-06T10:11:40.241Z,34.60
2023-05-06T10:14:10.196Z,34.50
2023-05-06T10:16:39.047Z,34.40
2023-05-06T10:19:08.281Z,34.70
2023-05-06T10:21:41.562Z,35.20
2023-05-06T10:24:14.058Z,35.10
2023-05-06T10:26:45.595Z,35.00
2023-05-06T10:29:14.616Z,34.80
2023-05-06T10:31:51.914Z,34.50
2023-05-06T10:34:22.083Z,34.70
2023-05-06T10:36:54.500Z,34.10
2023-05-06T10:39:22.981Z,34.50
2023-05-06T10:41:51.221Z,34.70
2023-05-06T10:44:39.253Z,34.50
2023-05-06T10:47:07.525Z,34.40
2023-05-06T10:49:35.746Z,34.10
2023-05-06T10:52:12.796Z,34.70
2023-05-06T10:54:51.585Z,34.90
2023-05-06T10:57:20.414Z,34.80
2023-05-06T10:59:49.205Z,34.90
2023-05-06T11:02:21.305Z,34.80
2023-05-06T11:05:00.177Z,35.10
2023-05-06T11:07:28.675Z,34.80
2023-05-06T11:10:00.580Z,34.60
2023-05-06T11:12:51.772Z,34.90
2023-05-06T11:15:41.417Z,34.60
2023-05-06T11:18:27.856Z,34.90
2023-05-06T11:21:01.921Z,35.00
2023-05-06T11:23:48.492Z,35.10
2023-05-06T11:26:17.154Z,35.70
2023-05-06T11:28:47.888Z,35.40
2023-05-06T11:31:17.041Z,34.90
2023-05-06T11:33:49.895Z,34.30
2023-05-06T11:36:20.224Z,34.20
2023-05-06T11:38:53.388Z,34.20
2023-05-06T11:41:23.620Z,34.10
2023-05-06T11:43:53.723Z,34.20
2023-05-06T11:46:23.963Z,34.10
2023-05-06T11:48:52.311Z,33.90
2023-05-06T11:51:24.109Z,34.20
2023-05-06T11:53:54.701Z,34.60
2023-05-06T11:56:23.031Z,34.20
2023-05-06T11:58:52.789Z,34.80
2023-05-06T12:01:21.068Z,34.80
2023-05-06T12:03:49.780Z,34.40
2023-05-06T12:06:18.217Z,34.50
2023-05-06T12:08:46.693Z,34.80
2023-05-06T12:11:15.004Z,34.50
2023-05-06T12:13:43.406Z,34.30
2023-05-06T12:16:11.768Z,34.20
2023-05-06T12:18:40.424Z,34.00
2023-05-06T12:21:08.786Z,34.40
2023-05-06T12:23:37.095Z,34.70
2023-05-06T12:26:07.564Z,34.50
2023-05-06T12:28:37.398Z,34.10
2023-05-06T12:31:21.114Z,34.20
2023-05-06T12:33:50.524Z,34.20
2023-05-06T12:36:19.796Z,34.20
2023-05-06T12:38:56.382Z,33.80
2023-05-06T12:41:34.684Z,33.60
2023-05-06T12:44:03.222Z,33.80
2023-05-06T12:46:31.428Z,34.00
2023-05-06T12:49:01.542Z,34.10
2023-05-06T12:51:30.842Z,33.70
2023-05-06T12:53:59.257Z,33.40
2023-05-06T12:56:27.579Z,33.70
2023-05-06T12:59:00.842Z,33.80
2023-05-06T13:06:19.460Z,33.40
2023-05-06T13:08:47.726Z,32.90
2023-05-06T13:11:15.920Z,33.10
2023-05-06T13:13:44.200Z,33.10
2023-05-06T13:16:12.461Z,33.10
2023-05-06T13:18:40.746Z,33.00
2023-05-06T13:21:09.003Z,33.40
2023-05-06T13:23:37.258Z,33.70
2023-05-06T13:26:06.187Z,33.60
2023-05-06T13:28:35.308Z,33.30
2023-05-06T13:31:03.716Z,33.20
2023-05-06T13:33:32.239Z,33.10
2023-05-06T13:36:01.529Z,33.30
2023-05-06T13:38:30.577Z,33.40
2023-05-06T13:40:58.710Z,33.20
2023-05-06T13:43:27.152Z,33.30
2023-05-06T13:45:55.303Z,33.40
2023-05-06T13:48:23.555Z,33.50
2023-05-06T13:50:51.799Z,33.40
2023-05-06T13:53:20.714Z,33.30
2023-05-06T13:55:48.853Z,33.20
2023-05-06T13:58:17.135Z,33.40
2023-05-06T14:00:45.257Z,33.20
2023-05-06T14:03:13.437Z,33.30
2023-05-06T14:05:41.670Z,33.40
2023-05-06T14:08:10.005Z,33.30
2023-05-06T14:10:38.143Z,33.30
2023-05-06T14:13:07.314Z,33.30
2023-05-06T14:15:35.747Z,32.90
2023-05-06T14:18:04.966Z,33.00
2023-05-06T14:20:33.260Z,33.00
2023-05-06T14:23:01.437Z,33.30
2023-05-06T14:25:29.930Z,33.40
2023-05-06T14:27:58.393Z,33.40
2023-05-06T14:30:26.636Z,33.30
2023-05-06T14:32:55.102Z,33.20
2023-05-06T14:35:23.609Z,33.20
2023-05-06T14:37:51.960Z,33.40
2023-05-06T14:40:20.222Z,33.10
2023-05-06T14:42:49.084Z,32.90
2023-05-06T14:45:17.345Z,32.70
2023-05-06T14:47:48.572Z,32.80
2023-05-06T14:50:16.916Z,32.80
2023-05-06T14:52:45.677Z,32.90
2023-05-06T14:55:14.081Z,32.90
2023-05-06T14:57:42.371Z,32.90
2023-05-06T15:00:11.132Z,33.20
2023-05-06T15:02:39.538Z,33.30
2023-05-06T15:07:38.019Z,33.60
2023-05-06T15:10:06.728Z,33.10
2023-05-06T15:12:35.855Z,33.00
2023-05-06T15:15:04.499Z,33.00
2023-05-06T15:17:32.826Z,33.10
2023-05-06T15:20:01.352Z,33.30
2023-05-06T15:22:29.708Z,33.30
2023-05-06T15:24:57.904Z,32.90
2023-05-06T15:27:26.083Z,33.30
2023-05-06T15:29:54.393Z,33.50
2023-05-06T15:32:22.678Z,33.30
2023-05-06T15:34:51.009Z,33.10
2023-05-06T15:37:19.416Z,32.70
2023-05-06T15:39:47.755Z,32.70
2023-05-06T15:42:17.186Z,32.90
2023-05-06T15:44:47.306Z,32.60
2023-05-06T15:47:15.654Z,32.70
2023-05-06T15:52:14.941Z,32.90
2023-05-06T15:54:49.171Z,33.40
2023-05-06T15:57:18.379Z,33.20
2023-05-06T15:59:46.590Z,32.80
2023-05-06T16:02:32.442Z,32.80
2023-05-06T16:05:00.936Z,32.60
2023-05-06T16:07:29.260Z,32.60
2023-05-06T16:09:57.607Z,32.80
2023-05-06T16:12:25.726Z,33.00
2023-05-06T16:14:54.189Z,33.50
2023-05-06T16:17:22.502Z,33.30
2023-05-06T16:19:51.001Z,33.50
2023-05-06T16:22:19.184Z,33.20
2023-05-06T16:24:47.422Z,32.80
2023-05-06T16:27:15.750Z,32.70
2023-05-06T16:29:43.937Z,32.70
2023-05-06T16:32:12.083Z,32.80
2023-05-06T16:34:40.974Z,33.00
2023-05-06T16:37:09.260Z,32.80
2023-05-06T16:39:37.476Z,32.70
2023-05-06T16:42:05.853Z,32.60
2023-05-06T16:44:34.098Z,32.30
2023-05-06T16:47:02.330Z,32.20
2023-05-06T16:49:30.625Z,32.60
2023-05-06T16:51:58.983Z,32.70
2023-05-06T16:54:27.795Z,32.70
2023-05-06T16:56:56.602Z,32.50
2023-05-06T16:59:24.887Z,32.30
2023-05-06T17:01:53.340Z,32.00
2023-05-06T17:04:23.151Z,31.90
2023-05-06T17:06:51.922Z,31.50
2023-05-06T17:09:20.535Z,31.40
2023-05-06T17:13:30.250Z,31.60
2023-05-06T17:15:58.759Z,31.30
2023-05-06T17:18:26.946Z,31.30
2023-05-06T17:20:56.934Z,31.50
2023-05-06T17:23:25.977Z,31.60
2023-05-06T17:25:56.749Z,31.80
2023-05-06T17:28:25.011Z,31.40
2023-05-06T17:30:53.329Z,31.20
2023-05-06T17:33:21.998Z,31.20
2023-05-06T17:35:50.125Z,31.10
2023-05-06T17:38:18.502Z,31.10
2023-05-06T17:40:46.700Z,31.40
2023-05-06T17:43:15.172Z,31.60
2023-05-06T17:45:43.475Z,31.50
2023-05-06T17:48:11.759Z,31.30
2023-05-06T17:50:39.976Z,31.10
2023-05-06T17:53:08.485Z,30.90
2023-05-06T17:55:36.656Z,30.80
2023-05-06T17:58:04.969Z,31.00
2023-05-06T18:00:33.177Z,31.10
2023-05-06T18:03:01.656Z,31.30
2023-05-06T18:05:30.043Z,31.10
2023-05-06T18:07:58.434Z,30.90
2023-05-06T18:10:26.552Z,30.70
2023-05-06T18:12:55.377Z,30.70
2023-05-06T18:15:24.028Z,30.70
2023-05-06T18:17:52.335Z,30.80
2023-05-06T18:20:20.566Z,30.70
2023-05-06T18:22:49.561Z,30.60
2023-05-06T18:25:17.841Z,30.40
2023-05-06T18:27:46.006Z,30.40
2023-05-06T18:30:16.193Z,30.30
2023-05-06T18:32:44.515Z,30.40
2023-05-06T18:35:13.217Z,30.60
2023-05-06T18:37:41.881Z,30.90
2023-05-06T18:40:10.277Z,30.60
2023-05-06T18:42:38.573Z,30.40
2023-05-06T18:45:07.582Z,30.20
2023-05-06T18:47:35.946Z,30.00
2023-05-06T18:50:04.339Z,30.10
2023-05-06T18:52:32.642Z,30.40
2023-05-06T18:55:00.757Z,30.30
2023-05-06T18:57:29.216Z,29.90
2023-05-06T18:59:57.436Z,29.10
2023-05-06T19:02:25.947Z,28.60
2023-05-06T19:04:54.200Z,28.40
2023-05-06T19:07:22.909Z,28.40
2023-05-06T19:09:51.099Z,28.50
2023-05-06T19:12:19.358Z,28.40
2023-05-06T19:14:47.634Z,28.20
2023-05-06T19:17:16.299Z,27.90
2023-05-06T19:19:45.129Z,27.90
2023-05-06T19:22:13.647Z,27.90
2023-05-06T19:24:42.354Z,27.80
2023-05-06T19:27:10.632Z,27.70
2023-05-06T19:29:40.287Z,27.80
2023-05-06T19:32:09.763Z,27.70
2023-05-06T19:34:37.923Z,27.60
2023-05-06T19:37:06.332Z,27.60
2023-05-06T19:39:34.717Z,27.60
2023-05-06T19:42:02.983Z,27.70
2023-05-06T19:44:31.282Z,27.60
2023-05-06T19:46:59.824Z,27.70
2023-05-06T19:49:28.941Z,27.70
2023-05-06T19:51:57.284Z,27.50
2023-05-06T19:54:25.719Z,27.60
2023-05-06T19:56:53.839Z,27.60
2023-05-06T19:59:22.143Z,27.50
2023-05-06T20:01:50.835Z,27.60
2023-05-06T20:04:18.948Z,27.60
2023-05-06T20:06:47.278Z,27.70
2023-05-06T20:09:15.559Z,27.60
2023-05-06T20:11:43.827Z,27.50
2023-05-06T20:14:12.054Z,27.60
2023-05-06T20:16:41.383Z,27.50
2023-05-06T20:19:09.693Z,27.80
2023-05-06T20:21:37.889Z,27.90
2023-05-06T20:24:09.474Z,27.90
2023-05-06T20:26:38.487Z,27.70
2023-05-06T20:29:06.718Z,27.60
2023-05-06T20:31:34.992Z,27.60
2023-05-06T20:34:03.391Z,27.60
2023-05-06T20:36:31.688Z,27.80
2023-05-06T20:39:00.056Z,28.10
2023-05-06T20:41:28.487Z,28.10
2023-05-06T20:43:56.909Z,27.50
2023-05-06T20:46:25.375Z,27.40
2023-05-06T20:48:53.696Z,27.50
2023-05-06T20:51:22.388Z,27.60
2023-05-06T20:53:50.606Z,27.80
2023-05-06T20:56:20.203Z,27.90
2023-05-06T20:58:48.980Z,27.90
2023-05-06T21:01:17.521Z,27.70
2023-05-06T21:03:46.314Z,27.40
2023-05-06T21:06:16.038Z,27.50
2023-05-06T21:08:46.127Z,27.50
2023-05-06T21:11:14.723Z,27.50
2023-05-06T21:13:42.876Z,27.60
2023-05-06T21:16:11.414Z,27.60
2023-05-06T21:18:40.526Z,27.50
2023-05-06T21:21:09.203Z,27.20
2023-05-06T21:23:37.543Z,27.00
2023-05-06T21:26:06.016Z,27.00
2023-05-06T21:28:37.119Z,27.10
2023-05-06T21:31:05.529Z,27.40
2023-05-06T21:33:33.926Z,27.60
2023-05-06T21:36:02.125Z,27.40
2023-05-06T21:38:30.471Z,27.10
2023-05-06T21:40:58.887Z,27.00
2023-05-06T21:43:27.293Z,26.70
2023-05-06T21:45:55.835Z,26.60
2023-05-06T21:48:24.218Z,26.70
2023-05-06T21:50:52.664Z,26.80
2023-05-06T21:53:21.058Z,26.70
2023-05-06T21:55:49.148Z,26.60
2023-05-06T21:58:17.560Z,26.50
2023-05-06T22:00:45.803Z,26.50
2023-05-06T22:03:14.167Z,26.50
2023-05-06T22:05:42.577Z,26.40
2023-05-06T22:08:10.962Z,26.70
2023-05-06T22:10:39.597Z,27.00
2023-05-06T22:13:08.024Z,26.90
2023-05-06T22:15:36.559Z,26.90
2023-05-06T22:18:05.241Z,26.80
2023-05-06T22:20:33.521Z,26.80
2023-05-06T22:23:01.728Z,26.80
2023-05-06T22:25:29.974Z,27.00
2023-05-06T22:27:58.420Z,27.00
2023-05-06T22:30:26.678Z,26.50
2023-05-06T22:32:54.908Z,26.30
2023-05-06T22:35:23.430Z,26.50
2023-05-06T22:37:52.264Z,26.50
2023-05-06T22:40:20.557Z,26.50
2023-05-06T22:42:48.831Z,26.70
2023-05-06T22:45:17.060Z,26.50
2023-05-06T22:47:45.681Z,26.40
2023-05-06T22:50:13.897Z,26.20
2023-05-06T22:52:42.316Z,26.10
2023-05-06T22:55:11.046Z,26.40
2023-05-06T22:57:39.646Z,26.60
2023-05-06T23:00:08.685Z,26.20
2023-05-06T23:02:37.205Z,26.30
2023-05-06T23:05:05.769Z,26.30
2023-05-06T23:07:34.211Z,26.40
2023-05-06T23:10:03.032Z,26.60
2023-05-06T23:12:35.453Z,26.70
2023-05-06T23:21:45.248Z,26.30
2023-05-06T23:24:13.775Z,26.10
2023-05-06T23:26:48.682Z,25.90
2023-05-06T23:29:17.237Z,25.90
2023-05-06T23:31:45.715Z,25.80
2023-05-06T23:34:14.027Z,25.70
2023-05-06T23:36:42.646Z,25.70
2023-05-06T23:39:10.793Z,25.90
2023-05-06T23:45:13.752Z,26.30
2023-05-06T23:50:11.032Z,26.30
2023-05-06T23:52:39.953Z,26.20
2023-05-06T23:55:08.933Z,26.20
2023-05-06T23:57:37.547Z,26.30
